M I D A S
Marine Information and Data Acquisition System
Tripno 2229 of the Zeeleeuw from 2011-08-22 06:36:04 to 2011-08-22 18:08:07
Back to CruiseResearch ActivitiesStationsMapUnderway DataData graphs

EquipmentUnitsComment
TimeDGPSUTC
LatitudeDGPSDM.mWGS84
LongitudeDGPSDM.mWGS84
HeadingGyrodeg 
SOGDGPSknotsSpeed over ground
COGDGPSdegCourse over ground
DepthEcho soundermeters200 kHz
Missing or incorrect values are displayed as -999
Navigation data collected by the RV Zeeleeuw from 2011-08-22 06:31:42 to 2011-08-22 18:06:41
                                                                                    Next 1000 lines
Time Latitude Longitude Heading SOG COG Depth
2011-08-22 06:31:52 51°13.636 2°56.017 110.3 0.6 273 9.4
2011-08-22 06:31:58 51°13.636 2°56.014 109.7 1 284 9.3
2011-08-22 06:32:02 51°13.636 2°56.011 109.3 1.3 284 9.5
2011-08-22 06:32:07 51°13.637 2°56.007 109.2 1.7 286 9.6
2011-08-22 06:32:12 51°13.638 2°56.003 109.4 2 287 5.9
2011-08-22 06:32:18 51°13.639 2°55.997 110.2 2.4 286 -999
2011-08-22 06:32:23 51°13.64 2°55.991 110.7 2.8 288 -999
2011-08-22 06:32:29 51°13.641 2°55.983 110.8 3.2 287 -999
2011-08-22 06:32:34 51°13.643 2°55.975 110.5 3.5 288 -999
2011-08-22 06:32:40 51°13.645 2°55.965 110.4 3.8 287 -999
2011-08-22 06:32:46 51°13.647 2°55.955 110.5 4 288 -999
2011-08-22 06:32:50 51°13.649 2°55.948 110.7 4.2 288 -999
2011-08-22 06:32:56 51°13.651 2°55.937 110.8 4.3 288 -999
2011-08-22 06:33:01 51°13.653 2°55.928 111.1 4.4 288 -999
2011-08-22 06:33:06 51°13.655 2°55.918 112.1 4.5 288 -999
2011-08-22 06:33:10 51°13.657 2°55.911 113.2 4.5 290 -999
2011-08-22 06:33:16 51°13.66 2°55.899 114.2 4.6 292 -999
2011-08-22 06:33:21 51°13.662 2°55.89 115.8 4.6 293 -999
2011-08-22 06:33:26 51°13.665 2°55.881 117.7 4.6 295 -999
2011-08-22 06:33:30 51°13.667 2°55.874 119.6 4.6 296 -999
2011-08-22 06:33:36 51°13.671 2°55.863 121 4.6 299 -999
2011-08-22 06:33:41 51°13.674 2°55.855 123 4.5 300 -999
2011-08-22 06:33:46 51°13.677 2°55.846 125.1 4.6 303 -999
2011-08-22 06:33:50 51°13.68 2°55.839 126.7 4.7 305 -999
2011-08-22 06:33:56 51°13.685 2°55.829 127.8 4.7 307 -999
2011-08-22 06:34:01 51°13.689 2°55.821 129 4.6 307 -999
2011-08-22 06:34:06 51°13.693 2°55.814 129.8 4.5 309 -999
2011-08-22 06:34:10 51°13.695 2°55.807 130 4.4 308 -999
2011-08-22 06:34:16 51°13.7 2°55.798 130 4.5 309 -999
2011-08-22 06:34:21 51°13.704 2°55.79 130 4.5 310 -999
2011-08-22 06:34:26 51°13.707 2°55.783 130.4 4.5 309 -999
2011-08-22 06:34:30 51°13.71 2°55.777 130.7 4.4 309 -999
2011-08-22 06:34:36 51°13.716 2°55.768 130.9 4.4 309 -999
2011-08-22 06:34:41 51°13.72 2°55.76 131.1 4.5 309 -999
2011-08-22 06:34:46 51°13.724 2°55.752 131.3 4.4 309 -999
2011-08-22 06:34:50 51°13.727 2°55.746 131.5 4.4 309 -999
2011-08-22 06:34:56 51°13.731 2°55.737 131.8 4.3 309 -999
2011-08-22 06:35:01 51°13.735 2°55.73 132.5 4.2 310 -999
2011-08-22 06:35:06 51°13.739 2°55.723 133.7 4.1 310 -999
2011-08-22 06:35:10 51°13.742 2°55.718 135 4.1 311 -999
2011-08-22 06:35:16 51°13.746 2°55.71 136.1 4 312 -999
2011-08-22 06:35:21 51°13.75 2°55.704 137.8 4 314 -999
2011-08-22 06:35:26 51°13.754 2°55.698 139.7 4 316 -999
2011-08-22 06:35:30 51°13.757 2°55.693 142.5 4 318 -999
2011-08-22 06:35:36 51°13.762 2°55.686 144.7 4.2 320 -999
2011-08-22 06:35:41 51°13.768 2°55.68 147.2 4.4 324 -999
2011-08-22 06:35:46 51°13.773 2°55.675 150.6 4.6 327 -999
2011-08-22 06:35:50 51°13.778 2°55.671 153.2 4.8 330 -999
2011-08-22 06:35:56 51°13.785 2°55.664 155.1 5 333 -999
2011-08-22 06:36:01 51°13.792 2°55.66 157.2 5.2 335 -999
2011-08-22 06:36:06 51°13.799 2°55.655 159.4 5.3 337 -999
2011-08-22 06:36:10 51°13.804 2°55.651 161 5.5 338 -999
2011-08-22 06:36:16 51°13.813 2°55.646 162.1 5.6 340 -999
2011-08-22 06:36:21 51°13.821 2°55.643 163.3 5.7 342 -999
2011-08-22 06:36:26 51°13.828 2°55.639 164.6 5.8 342 -999
2011-08-22 06:36:30 51°13.835 2°55.636 166.3 5.9 344 -999
2011-08-22 06:36:36 51°13.844 2°55.632 167.7 5.9 345 -999
2011-08-22 06:36:41 51°13.852 2°55.629 169.1 5.9 347 -999
2011-08-22 06:36:46 51°13.86 2°55.626 171.2 6 349 -999
2011-08-22 06:36:50 51°13.867 2°55.625 172.8 6 351 -999
2011-08-22 06:36:56 51°13.876 2°55.623 175.4 5.9 353 -999
2011-08-22 06:37:01 51°13.884 2°55.622 178 5.6 355 -999
2011-08-22 06:37:06 51°13.891 2°55.622 181.1 5.4 358 -999
2011-08-22 06:37:10 51°13.897 2°55.622 183.4 5.2 359 -999
2011-08-22 06:37:16 51°13.905 2°55.623 185.2 5 2 -999
2011-08-22 06:37:21 51°13.912 2°55.623 187.4 4.8 3 -999
2011-08-22 06:37:26 51°13.918 2°55.624 189.5 4.6 5 -999
2011-08-22 06:37:30 51°13.923 2°55.625 191.6 4.5 7 -999
2011-08-22 06:37:36 51°13.93 2°55.627 193.3 4.4 9 -999
2011-08-22 06:37:41 51°13.936 2°55.629 195.4 4.2 12 -999
2011-08-22 06:37:46 51°13.941 2°55.632 197.5 4.1 13 -999
2011-08-22 06:37:50 51°13.945 2°55.634 200 4 16 -999
2011-08-22 06:37:56 51°13.951 2°55.637 202.1 3.8 17 -999
2011-08-22 06:38:01 51°13.956 2°55.639 204.1 3.5 20 -999
2011-08-22 06:38:06 51°13.96 2°55.642 206 3.3 21 -999
2011-08-22 06:38:10 51°13.963 2°55.644 207.7 3 22 -999
2011-08-22 06:38:16 51°13.967 2°55.647 209.2 2.6 25 13.7
2011-08-22 06:38:21 51°13.97 2°55.649 211.1 2.3 25 13.7
2011-08-22 06:38:25 51°13.972 2°55.65 212.6 1.9 27 13.7
2011-08-22 06:38:30 51°13.974 2°55.652 214.9 1.6 26 14
2011-08-22 06:38:35 51°13.975 2°55.653 217 1.2 23 13.8
2011-08-22 06:38:40 51°13.976 2°55.653 219 0.6 10 13.6
2011-08-22 06:38:45 51°13.976 2°55.652 221.8 0.3 307 13.7
2011-08-22 06:38:50 51°13.975 2°55.651 225.4 0.5 262 13.6
2011-08-22 06:38:54 51°13.975 2°55.65 231.8 0.8 252 13.6
2011-08-22 06:38:59 51°13.975 2°55.647 237.6 1 259 13.8
2011-08-22 06:39:04 51°13.974 2°55.644 243.4 1.4 255 13.8
2011-08-22 06:39:09 51°13.974 2°55.64 249 1.8 260 13.7
2011-08-22 06:39:14 51°13.974 2°55.635 255 2.2 264 13.4
2011-08-22 06:39:18 51°13.973 2°55.63 261.6 2.5 269 13.6
2011-08-22 06:39:23 51°13.974 2°55.624 268.3 2.7 274 13.6
2011-08-22 06:39:28 51°13.974 2°55.618 275.2 3 281 13.5
2011-08-22 06:39:33 51°13.976 2°55.611 282.1 3.2 287 13.3
2011-08-22 06:39:38 51°13.978 2°55.604 289 3.4 293 13.6
2011-08-22 06:39:43 51°13.98 2°55.597 296 3.6 300 13.6
2011-08-22 06:39:48 51°13.983 2°55.59 303.3 3.8 305 13.3
2011-08-22 06:39:53 51°13.988 2°55.583 310.6 4.2 312 13.3
2011-08-22 06:39:58 51°13.992 2°55.576 315.8 4.6 314 13.4
2011-08-22 06:40:02 51°13.996 2°55.569 318.6 5 315 13.4
2011-08-22 06:40:07 51°14.002 2°55.561 320.5 5.4 319 13.4
2011-08-22 06:40:12 51°14.008 2°55.553 322 5.9 319 13.4
2011-08-22 06:40:18 51°14.017 2°55.542 323.4 6.4 321 13.4
2011-08-22 06:40:22 51°14.023 2°55.535 324.8 6.8 323 13.3
2011-08-22 06:40:27 51°14.031 2°55.526 326.3 7.1 324 13.3
2011-08-22 06:40:32 51°14.04 2°55.516 327.8 7.5 326 13.4
2011-08-22 06:40:38 51°14.051 2°55.505 328.6 7.9 327 13.3
2011-08-22 06:40:42 51°14.059 2°55.497 329.6 8.1 328 13.2
2011-08-22 06:40:47 51°14.069 2°55.487 330.8 8.4 329 13.2
2011-08-22 06:40:52 51°14.079 2°55.477 331.1 8.7 329 13.2
2011-08-22 06:40:58 51°14.092 2°55.465 331.1 8.9 329 13.2
2011-08-22 06:41:02 51°14.101 2°55.457 331.9 9.1 330 13.2
2011-08-22 06:41:07 51°14.112 2°55.446 332 9.3 329 13.2
2011-08-22 06:41:12 51°14.124 2°55.436 332.5 9.5 331 13.1
2011-08-22 06:41:18 51°14.138 2°55.423 333.3 9.6 331 13.1
2011-08-22 06:41:22 51°14.147 2°55.415 333.3 9.7 331 13.1
2011-08-22 06:41:27 51°14.159 2°55.404 333.2 9.7 331 13.1
2011-08-22 06:41:32 51°14.171 2°55.394 333.9 9.8 332 -999
2011-08-22 06:41:38 51°14.185 2°55.381 333.3 9.9 330 13.1
2011-08-22 06:41:42 51°14.195 2°55.372 332.5 9.9 330 13.1
2011-08-22 06:41:47 51°14.207 2°55.361 332.1 9.9 329 13.2
2011-08-22 06:41:52 51°14.219 2°55.35 331.8 9.9 329 -999
2011-08-22 06:41:57 51°14.23 2°55.338 331.2 10 329 13.1
2011-08-22 06:42:02 51°14.242 2°55.327 331.1 10 329 13.4
2011-08-22 06:42:07 51°14.254 2°55.316 331.8 10 330 13.2
2011-08-22 06:42:12 51°14.266 2°55.304 331.2 10 328 13
2011-08-22 06:42:17 51°14.278 2°55.291 329.5 10.1 327 13.3
2011-08-22 06:42:22 51°14.289 2°55.28 329.1 10.1 327 13.1
2011-08-22 06:42:27 51°14.301 2°55.268 330 10.1 329 13
2011-08-22 06:42:32 51°14.313 2°55.256 330.1 10.1 327 13.2
2011-08-22 06:42:38 51°14.328 2°55.241 329.7 10.1 327 -999
2011-08-22 06:42:42 51°14.337 2°55.232 329.9 10.1 328 -999
2011-08-22 06:42:47 51°14.349 2°55.22 330.2 10.1 328 13.1
2011-08-22 06:42:52 51°14.361 2°55.208 329.8 10.2 327 13.1
2011-08-22 06:42:57 51°14.373 2°55.196 330.2 10.3 329 13.1
2011-08-22 06:43:02 51°14.385 2°55.184 331.1 10.4 329 13
2011-08-22 06:43:07 51°14.397 2°55.172 332.1 10.4 330 12.7
2011-08-22 06:43:12 51°14.41 2°55.16 332.3 10.5 329 13.1
2011-08-22 06:43:17 51°14.422 2°55.148 331.4 10.6 328 13.1
2011-08-22 06:43:22 51°14.435 2°55.135 331 10.7 328 13
2011-08-22 06:43:27 51°14.448 2°55.122 331.1 10.8 328 12.8
2011-08-22 06:43:32 51°14.46 2°55.11 331.2 10.8 328 13.1
2011-08-22 06:43:37 51°14.473 2°55.096 330.5 11 326 13.2
2011-08-22 06:43:42 51°14.486 2°55.083 329.4 11.1 327 13.2
2011-08-22 06:43:47 51°14.499 2°55.069 328.9 11.3 326 13.2
2011-08-22 06:43:52 51°14.512 2°55.056 328.9 11.3 327 13.3
2011-08-22 06:43:57 51°14.526 2°55.041 329.4 11.5 327 13.4
2011-08-22 06:44:02 51°14.54 2°55.028 330.1 11.7 328 13.7
2011-08-22 06:44:07 51°14.554 2°55.014 330.4 11.8 328 13.8
2011-08-22 06:44:12 51°14.568 2°55 330.5 12 329 13.8
2011-08-22 06:44:17 51°14.582 2°54.986 330.4 12.2 328 13.9
2011-08-22 06:44:22 51°14.597 2°54.972 330.4 12.3 328 13.8
2011-08-22 06:44:27 51°14.611 2°54.958 331.1 12.4 329 13.7
2011-08-22 06:44:32 51°14.626 2°54.942 329.6 12.4 326 13.9
2011-08-22 06:44:37 51°14.64 2°54.927 328.2 12.5 327 13.4
2011-08-22 06:44:42 51°14.655 2°54.912 327.6 12.5 326 13.6
2011-08-22 06:44:47 51°14.669 2°54.896 327.1 12.5 326 13.5
2011-08-22 06:44:52 51°14.683 2°54.88 326.5 12.5 325 13.6
2011-08-22 06:44:57 51°14.697 2°54.864 325.7 12.5 325 13.4
2011-08-22 06:45:02 51°14.712 2°54.849 325.9 12.5 326 13.6
2011-08-22 06:45:07 51°14.727 2°54.834 326.6 12.5 328 13.4
2011-08-22 06:45:12 51°14.741 2°54.82 327.5 12.4 328 13.5
2011-08-22 06:45:17 51°14.755 2°54.804 326.4 12.4 325 13.5
2011-08-22 06:45:22 51°14.77 2°54.789 324.8 12.4 326 13.4
2011-08-22 06:45:27 51°14.784 2°54.773 324.7 12.4 326 13.6
2011-08-22 06:45:32 51°14.798 2°54.757 325.2 12.4 325 13.6
2011-08-22 06:45:37 51°14.812 2°54.741 324.5 12.3 324 13.6
2011-08-22 06:45:42 51°14.826 2°54.725 323.8 12.3 324 13.8
2011-08-22 06:45:47 51°14.839 2°54.709 323.4 12.3 323 13.7
2011-08-22 06:45:52 51°14.853 2°54.693 323.2 12.3 324 13.8
2011-08-22 06:45:57 51°14.867 2°54.677 323.4 12.4 323 13.9
2011-08-22 06:46:02 51°14.881 2°54.661 323.1 12.4 324 13.9
2011-08-22 06:46:07 51°14.895 2°54.644 322.3 12.4 323 14
2011-08-22 06:46:12 51°14.909 2°54.628 322.4 12.5 324 13.9
2011-08-22 06:46:17 51°14.923 2°54.612 323.5 12.4 324 13.9
2011-08-22 06:46:22 51°14.936 2°54.595 323.1 12.4 322 13.8
2011-08-22 06:46:27 51°14.95 2°54.579 322 12.4 322 13.5
2011-08-22 06:46:32 51°14.963 2°54.562 322.2 12.4 323 13.4
2011-08-22 06:46:37 51°14.977 2°54.545 322.5 12.4 322 13.4
2011-08-22 06:46:42 51°14.991 2°54.529 322.7 12.3 323 13.3
2011-08-22 06:46:47 51°15.004 2°54.512 323.7 12.4 322 13.4
2011-08-22 06:46:52 51°15.017 2°54.495 323.3 12.4 321 13.4
2011-08-22 06:46:57 51°15.03 2°54.478 322.1 12.3 321 13.3
2011-08-22 06:47:02 51°15.043 2°54.46 321.3 12.3 318 13.3
2011-08-22 06:47:06 51°15.054 2°54.445 320.3 12.3 319 13.4
2011-08-22 06:47:12 51°15.069 2°54.423 319.9 12.3 318 13.3
2011-08-22 06:47:17 51°15.081 2°54.405 319.4 12.3 318 13.4
2011-08-22 06:47:22 51°15.094 2°54.387 319.7 12.3 319 13.5
2011-08-22 06:47:27 51°15.107 2°54.369 320 12.3 319 13.4
2011-08-22 06:47:32 51°15.12 2°54.351 320.2 12.3 320 13.6
2011-08-22 06:47:37 51°15.133 2°54.334 320.8 12.3 320 13.7
2011-08-22 06:47:42 51°15.146 2°54.317 321.2 12.3 321 13.6
2011-08-22 06:47:47 51°15.159 2°54.3 321.9 12.3 321 13.7
2011-08-22 06:47:52 51°15.173 2°54.282 322 12.3 321 13.7
2011-08-22 06:47:57 51°15.186 2°54.265 322 12.3 321 13.7
2011-08-22 06:48:02 51°15.199 2°54.249 322.3 12.3 322 13.7
2011-08-22 06:48:07 51°15.213 2°54.232 322.8 12.3 322 13.8
2011-08-22 06:48:11 51°15.224 2°54.218 323 12.4 322 13.9
2011-08-22 06:48:17 51°15.24 2°54.198 323.1 12.4 322 13.7
2011-08-22 06:48:22 51°15.253 2°54.181 323 12.4 321 13.8
2011-08-22 06:48:26 51°15.264 2°54.167 322.3 12.4 321 13.8
2011-08-22 06:48:32 51°15.28 2°54.147 321.9 12.4 322 13.7
2011-08-22 06:48:37 51°15.293 2°54.129 322.1 12.4 322 13.9
2011-08-22 06:48:42 51°15.306 2°54.112 322.2 12.4 321 13.7
2011-08-22 06:48:47 51°15.32 2°54.095 321.9 12.4 321 13.9
2011-08-22 06:48:51 51°15.331 2°54.081 321.6 12.4 321 13.9
2011-08-22 06:48:57 51°15.347 2°54.06 321.4 12.5 321 13.9
2011-08-22 06:49:02 51°15.36 2°54.043 321 12.5 320 13.9
2011-08-22 06:49:07 51°15.373 2°54.025 320.6 12.5 321 13.8
2011-08-22 06:49:12 51°15.387 2°54.008 320.7 12.5 321 13.9
2011-08-22 06:49:17 51°15.4 2°53.991 321 12.5 322 13.9
2011-08-22 06:49:22 51°15.414 2°53.974 321.8 12.5 323 14
2011-08-22 06:49:27 51°15.429 2°53.958 323.6 12.6 324 14
2011-08-22 06:49:32 51°15.443 2°53.942 324.5 12.5 325 14.2
2011-08-22 06:49:37 51°15.457 2°53.926 325.7 12.5 326 14
2011-08-22 06:49:42 51°15.471 2°53.91 326.3 12.5 325 14.2
2011-08-22 06:49:46 51°15.483 2°53.898 326.6 12.5 326 13.9
2011-08-22 06:49:52 51°15.5 2°53.88 327 12.5 326 14.1
2011-08-22 06:49:57 51°15.514 2°53.864 327.4 12.5 326 14
2011-08-22 06:50:02 51°15.528 2°53.848 326.5 12.5 323 14
2011-08-22 06:50:07 51°15.542 2°53.832 325.2 12.5 324 13.9
2011-08-22 06:50:12 51°15.556 2°53.815 324.5 12.5 323 13.9
2011-08-22 06:50:17 51°15.569 2°53.797 323.1 12.5 322 13.9
2011-08-22 06:50:22 51°15.583 2°53.78 322.3 12.5 321 13.9
2011-08-22 06:50:27 51°15.596 2°53.763 321.7 12.5 321 13.9
2011-08-22 06:50:32 51°15.609 2°53.745 321.1 12.5 320 13.8
2011-08-22 06:50:37 51°15.622 2°53.727 320.2 12.4 319 14
2011-08-22 06:50:42 51°15.635 2°53.708 318.7 12.5 317 14.1
2011-08-22 06:50:47 51°15.648 2°53.689 318.1 12.4 318 14
2011-08-22 06:50:52 51°15.66 2°53.67 317.8 12.4 317 14
2011-08-22 06:50:57 51°15.673 2°53.652 317.7 12.5 318 14.1
2011-08-22 06:51:02 51°15.686 2°53.634 317.7 12.5 318 14
2011-08-22 06:51:07 51°15.699 2°53.615 317.7 12.4 318 14
2011-08-22 06:51:12 51°15.712 2°53.597 318.7 12.5 321 14.1
2011-08-22 06:51:17 51°15.726 2°53.582 321.5 12.5 324 14
2011-08-22 06:51:22 51°15.74 2°53.566 323.8 12.5 325 14.2
2011-08-22 06:51:27 51°15.755 2°53.552 326.4 12.5 329 14.2
2011-08-22 06:51:32 51°15.77 2°53.537 328.3 12.5 329 14.1
2011-08-22 06:51:37 51°15.785 2°53.524 329.6 12.5 330 14.1
2011-08-22 06:51:42 51°15.801 2°53.511 330.2 12.5 331 14.2
2011-08-22 06:51:47 51°15.816 2°53.498 331.1 12.6 333 14.1
2011-08-22 06:51:52 51°15.832 2°53.487 332.9 12.6 334 14.1
2011-08-22 06:51:57 51°15.848 2°53.475 334.1 12.6 335 14.2
2011-08-22 06:52:02 51°15.864 2°53.463 335.2 12.6 336 14.2
2011-08-22 06:52:06 51°15.876 2°53.454 336.4 12.7 337 14.2
2011-08-22 06:52:12 51°15.896 2°53.442 337.6 12.7 338 13.8
2011-08-22 06:52:17 51°15.912 2°53.432 338.2 12.7 338 13.9
2011-08-22 06:52:22 51°15.929 2°53.422 338.6 12.7 339 13.7
2011-08-22 06:52:26 51°15.941 2°53.413 338.2 12.7 337 13.6
2011-08-22 06:52:32 51°15.961 2°53.399 337.2 12.7 337 13.6
2011-08-22 06:52:37 51°15.977 2°53.388 336.9 12.7 337 13.6
2011-08-22 06:52:42 51°15.993 2°53.377 336.5 12.7 337 13.6
2011-08-22 06:52:47 51°16.009 2°53.366 336.4 12.7 337 13.5
2011-08-22 06:52:52 51°16.025 2°53.355 336.1 12.7 337 13.5
2011-08-22 06:52:57 51°16.041 2°53.344 335.8 12.6 337 13.5
2011-08-22 06:53:02 51°16.058 2°53.333 335.7 12.7 337 13.6
2011-08-22 06:53:07 51°16.074 2°53.322 335.4 12.7 336 13.7
2011-08-22 06:53:12 51°16.089 2°53.311 335.7 12.6 337 13.7
2011-08-22 06:53:17 51°16.106 2°53.299 335.8 12.6 336 13.8
2011-08-22 06:53:22 51°16.122 2°53.288 335.6 12.7 336 13.7
2011-08-22 06:53:27 51°16.137 2°53.276 335.1 12.6 336 13.7
2011-08-22 06:53:32 51°16.153 2°53.264 334.9 12.6 335 13.8
2011-08-22 06:53:37 51°16.169 2°53.252 333.7 12.6 334 13.8
2011-08-22 06:53:42 51°16.185 2°53.24 333.2 12.6 335 13.8
2011-08-22 06:53:47 51°16.2 2°53.228 333.2 12.6 334 13.9
2011-08-22 06:53:52 51°16.216 2°53.216 332.5 12.5 333 13.9
2011-08-22 06:53:57 51°16.231 2°53.203 331.2 12.5 332 13.9
2011-08-22 06:54:02 51°16.247 2°53.189 330.1 12.5 331 13.9
2011-08-22 06:54:07 51°16.262 2°53.176 329.6 12.5 331 14
2011-08-22 06:54:12 51°16.277 2°53.163 328.9 12.5 331 14
2011-08-22 06:54:17 51°16.292 2°53.15 328.9 12.5 331 14
2011-08-22 06:54:22 51°16.307 2°53.135 328.7 12.5 330 13.9
2011-08-22 06:54:27 51°16.322 2°53.121 328.4 12.6 331 14
2011-08-22 06:54:32 51°16.337 2°53.108 328.9 12.5 331 13.9
2011-08-22 06:54:37 51°16.352 2°53.095 329.1 12.5 330 14
2011-08-22 06:54:42 51°16.368 2°53.082 329 12.5 331 14.1
2011-08-22 06:54:47 51°16.383 2°53.069 330.1 12.6 333 14.1
2011-08-22 06:54:52 51°16.399 2°53.056 331.2 12.6 333 13.9
2011-08-22 06:54:57 51°16.415 2°53.044 332.4 12.7 335 14
2011-08-22 06:55:02 51°16.43 2°53.032 333.7 12.6 336 13.9
2011-08-22 06:55:07 51°16.446 2°53.021 334.8 12.7 336 13.9
2011-08-22 06:55:11 51°16.459 2°53.012 335.2 12.7 336 13.8
2011-08-22 06:55:17 51°16.479 2°52.998 335.4 12.7 336 13.9
2011-08-22 06:55:22 51°16.495 2°52.987 335.8 12.7 336 13.9
2011-08-22 06:55:27 51°16.511 2°52.975 335 12.7 334 13.8
2011-08-22 06:55:32 51°16.527 2°52.963 333.7 12.7 333 13.8
2011-08-22 06:55:37 51°16.542 2°52.951 332.8 12.6 333 13.6
2011-08-22 06:55:42 51°16.558 2°52.938 332 12.6 332 13.6
2011-08-22 06:55:47 51°16.573 2°52.924 331.1 12.5 331 13.8
2011-08-22 06:55:52 51°16.588 2°52.91 330 12.5 330 13.6
2011-08-22 06:55:57 51°16.603 2°52.897 330.2 12.6 332 13.5
2011-08-22 06:56:02 51°16.618 2°52.883 330.4 12.5 331 13.4
2011-08-22 06:56:07 51°16.633 2°52.87 330.3 12.5 331 13.3
2011-08-22 06:56:12 51°16.648 2°52.856 330 12.5 330 13.2
2011-08-22 06:56:17 51°16.663 2°52.842 329.6 12.5 331 13
2011-08-22 06:56:22 51°16.679 2°52.829 329.6 12.5 331 13
2011-08-22 06:56:26 51°16.691 2°52.818 329.7 12.5 331 12.8
2011-08-22 06:56:32 51°16.709 2°52.803 330.1 12.5 331 12.8
2011-08-22 06:56:37 51°16.724 2°52.789 330.5 12.5 331 12.5
2011-08-22 06:56:42 51°16.74 2°52.776 330.6 12.5 331 12.4
2011-08-22 06:56:47 51°16.755 2°52.763 330.5 12.5 331 12
2011-08-22 06:56:52 51°16.77 2°52.749 330.3 12.5 331 11.7
2011-08-22 06:56:57 51°16.785 2°52.736 330.3 12.5 331 11.7
2011-08-22 06:57:02 51°16.8 2°52.723 330.3 12.4 331 11.7
2011-08-22 06:57:07 51°16.815 2°52.71 330.1 12.5 331 11.8
2011-08-22 06:57:12 51°16.83 2°52.696 330 12.5 331 11.7
2011-08-22 06:57:17 51°16.845 2°52.683 329.7 12.5 331 11.5
2011-08-22 06:57:22 51°16.86 2°52.669 329.8 12.5 331 11.6
2011-08-22 06:57:27 51°16.875 2°52.655 330.2 12.5 331 11.5
2011-08-22 06:57:32 51°16.89 2°52.642 330.4 12.5 332 11.6
2011-08-22 06:57:37 51°16.906 2°52.629 330.6 12.6 332 11.7
2011-08-22 06:57:42 51°16.921 2°52.615 331 12.6 332 11.7
2011-08-22 06:57:47 51°16.936 2°52.602 331.1 12.6 332 11.8
2011-08-22 06:57:52 51°16.952 2°52.59 331.7 12.5 333 11.9
2011-08-22 06:57:57 51°16.967 2°52.577 332.2 12.5 333 11.9
2011-08-22 06:58:02 51°16.983 2°52.565 332.8 12.6 334 11.8
2011-08-22 06:58:07 51°16.999 2°52.553 333 12.6 334 11.7
2011-08-22 06:58:12 51°17.014 2°52.541 333.4 12.6 334 11.7
2011-08-22 06:58:17 51°17.03 2°52.529 333.5 12.6 334 11.6
2011-08-22 06:58:22 51°17.046 2°52.517 333.7 12.6 335 11.6
2011-08-22 06:58:27 51°17.062 2°52.506 334 12.6 336 11.8
2011-08-22 06:58:32 51°17.078 2°52.494 334.7 12.6 336 11.7
2011-08-22 06:58:37 51°17.094 2°52.483 335.1 12.7 336 11.9
2011-08-22 06:58:42 51°17.11 2°52.472 335.6 12.6 337 11.8
2011-08-22 06:58:46 51°17.123 2°52.463 336.2 12.6 337 11.9
2011-08-22 06:58:52 51°17.142 2°52.45 336.3 12.6 337 12
2011-08-22 06:58:57 51°17.158 2°52.439 336.3 12.6 336 12
2011-08-22 06:59:02 51°17.174 2°52.427 335.5 12.6 335 12
2011-08-22 06:59:07 51°17.19 2°52.416 334.7 12.6 335 12
2011-08-22 06:59:12 51°17.205 2°52.403 334.2 12.6 334 12.1
2011-08-22 06:59:17 51°17.221 2°52.391 333.4 12.6 334 12.1
2011-08-22 06:59:22 51°17.237 2°52.379 332.8 12.6 333 12.2
2011-08-22 06:59:27 51°17.253 2°52.366 331.7 12.6 331 12.3
2011-08-22 06:59:32 51°17.268 2°52.353 330.7 12.5 331 12.1
2011-08-22 06:59:37 51°17.283 2°52.338 329.8 12.5 329 12.4
2011-08-22 06:59:42 51°17.298 2°52.324 328.3 12.5 329 12.4
2011-08-22 06:59:47 51°17.312 2°52.309 327.4 12.5 328 12.3
2011-08-22 06:59:52 51°17.327 2°52.294 326.9 12.5 328 12.3
2011-08-22 06:59:57 51°17.341 2°52.279 326.9 12.6 328 12.6
2011-08-22 07:00:02 51°17.356 2°52.264 327.3 12.6 328 12.7
2011-08-22 07:00:07 51°17.371 2°52.25 327.7 12.6 329 12.8
2011-08-22 07:00:12 51°17.386 2°52.236 328.5 12.6 330 12.9
2011-08-22 07:00:17 51°17.402 2°52.223 329.5 12.6 331 13.2
2011-08-22 07:00:22 51°17.417 2°52.209 330.1 12.7 331 13.2
2011-08-22 07:00:27 51°17.433 2°52.196 330.9 12.7 332 13.1
2011-08-22 07:00:32 51°17.448 2°52.183 331.8 12.6 332 13.3
2011-08-22 07:00:37 51°17.463 2°52.169 331.4 12.5 329 13
2011-08-22 07:00:42 51°17.477 2°52.153 328.2 12.5 326 13.2
2011-08-22 07:00:47 51°17.491 2°52.137 324.8 12.5 324 13.1
2011-08-22 07:00:52 51°17.505 2°52.12 323.4 12.5 322 13.3
2011-08-22 07:00:57 51°17.518 2°52.103 321.6 12.4 321 13.3
2011-08-22 07:01:02 51°17.531 2°52.084 318.6 12.5 317 13.1
2011-08-22 07:01:06 51°17.54 2°52.068 315.3 12.4 315 13
2011-08-22 07:01:11 51°17.552 2°52.049 314.1 12.4 315 12.9
2011-08-22 07:01:17 51°17.566 2°52.024 313.1 12.5 313 12.7
2011-08-22 07:01:22 51°17.578 2°52.004 311.9 12.5 312 12.4
2011-08-22 07:01:26 51°17.587 2°51.987 310.1 12.5 310 12.4
2011-08-22 07:01:32 51°17.6 2°51.961 309.1 12.4 309 12.3
2011-08-22 07:01:37 51°17.61 2°51.939 307.4 12.4 307 12.3
2011-08-22 07:01:42 51°17.621 2°51.918 306.5 12.5 308 12.3
2011-08-22 07:01:47 51°17.631 2°51.896 306.4 12.5 307 12.1
2011-08-22 07:01:51 51°17.64 2°51.879 306.3 12.5 308 12.3
2011-08-22 07:01:57 51°17.652 2°51.852 306.3 12.5 307 12.1
2011-08-22 07:02:02 51°17.663 2°51.831 305.9 12.5 307 12
2011-08-22 07:02:07 51°17.673 2°51.809 305.8 12.5 308 12
2011-08-22 07:02:12 51°17.684 2°51.787 305.7 12.5 308 12.1
2011-08-22 07:02:17 51°17.695 2°51.765 306.7 12.5 310 12
2011-08-22 07:02:22 51°17.707 2°51.744 307.9 12.5 311 12
2011-08-22 07:02:27 51°17.718 2°51.723 308.7 12.5 311 11.9
2011-08-22 07:02:32 51°17.73 2°51.703 309.3 12.6 312 11.9
2011-08-22 07:02:37 51°17.741 2°51.682 309.6 12.5 311 11.8
2011-08-22 07:02:42 51°17.753 2°51.661 309.7 12.5 312 11.7
2011-08-22 07:02:47 51°17.764 2°51.641 310.1 12.5 312 11.8
2011-08-22 07:02:52 51°17.776 2°51.62 310.4 12.5 312 11.9
2011-08-22 07:02:57 51°17.788 2°51.6 310.4 12.5 313 12
2011-08-22 07:03:02 51°17.799 2°51.579 310.7 12.5 313 11.9
2011-08-22 07:03:07 51°17.811 2°51.56 311.8 12.5 314 11.9
2011-08-22 07:03:12 51°17.824 2°51.54 312.2 12.5 314 12.1
2011-08-22 07:03:17 51°17.836 2°51.52 312.4 12.5 315 12.1
2011-08-22 07:03:22 51°17.848 2°51.501 313.1 12.5 316 12
2011-08-22 07:03:27 51°17.861 2°51.482 314.5 12.5 318 12.2
2011-08-22 07:03:31 51°17.872 2°51.468 316.4 12.5 319 12.3
2011-08-22 07:03:37 51°17.887 2°51.446 317.3 12.5 319 12.3
2011-08-22 07:03:42 51°17.901 2°51.428 317.8 12.5 319 12.4
2011-08-22 07:03:47 51°17.914 2°51.41 317.5 12.5 318 12.5
2011-08-22 07:03:52 51°17.927 2°51.391 317.1 12.5 318 12.6
2011-08-22 07:03:57 51°17.94 2°51.373 317.2 12.5 318 12.6
2011-08-22 07:04:02 51°17.952 2°51.355 317.4 12.5 318 12.8
2011-08-22 07:04:07 51°17.965 2°51.336 317.1 12.5 317 12.9
2011-08-22 07:04:12 51°17.978 2°51.317 316.1 12.4 317 12.9
2011-08-22 07:04:17 51°17.99 2°51.298 315.8 12.4 317 13.1
2011-08-22 07:04:22 51°18.003 2°51.279 315.7 12.4 316 13.1
2011-08-22 07:04:27 51°18.015 2°51.26 315.3 12.4 316 13.2
2011-08-22 07:04:32 51°18.027 2°51.24 314.4 12.4 314 13.4
2011-08-22 07:04:37 51°18.039 2°51.221 313.9 12.4 315 13.5
2011-08-22 07:04:42 51°18.051 2°51.201 313.7 12.4 314 13.6
2011-08-22 07:04:47 51°18.063 2°51.181 312.9 12.4 313 13.6
2011-08-22 07:04:52 51°18.075 2°51.161 312.3 12.4 312 13.7
2011-08-22 07:04:57 51°18.086 2°51.14 311.1 12.4 311 13.9
2011-08-22 07:05:02 51°18.097 2°51.12 310.3 12.3 311 14.1
2011-08-22 07:05:07 51°18.108 2°51.099 309.4 12.3 310 14
2011-08-22 07:05:12 51°18.119 2°51.078 309.4 12.3 310 14.2
2011-08-22 07:05:17 51°18.13 2°51.057 309.3 12.4 310 14.4
2011-08-22 07:05:22 51°18.141 2°51.036 309.2 12.3 310 14.2
2011-08-22 07:05:27 51°18.152 2°51.015 309.4 12.4 311 14.4
2011-08-22 07:05:32 51°18.163 2°50.994 309.7 12.4 310 14.5
2011-08-22 07:05:37 51°18.174 2°50.973 309.4 12.4 310 14.7
2011-08-22 07:05:42 51°18.185 2°50.953 309.7 12.4 311 14.7
2011-08-22 07:05:47 51°18.197 2°50.932 310.2 12.3 311 14.9
2011-08-22 07:05:51 51°18.206 2°50.916 310.7 12.4 312 14.7
2011-08-22 07:05:57 51°18.22 2°50.891 311.3 12.4 312 15
2011-08-22 07:06:02 51°18.231 2°50.871 311.9 12.4 313 14.8
2011-08-22 07:06:07 51°18.243 2°50.851 312.2 12.4 314 14.9
2011-08-22 07:06:12 51°18.255 2°50.832 313 12.4 315 15.1
2011-08-22 07:06:17 51°18.268 2°50.813 314.1 12.4 316 15
2011-08-22 07:06:22 51°18.28 2°50.793 315.3 12.4 316 15.3
2011-08-22 07:06:27 51°18.293 2°50.775 316.1 12.4 317 15
2011-08-22 07:06:32 51°18.305 2°50.756 316.5 12.5 316 15.3
2011-08-22 07:06:37 51°18.318 2°50.737 316.3 12.5 316 15.3
2011-08-22 07:06:42 51°18.33 2°50.717 315.6 12.4 315 15.4
2011-08-22 07:06:47 51°18.342 2°50.698 315.2 12.4 315 15.7
2011-08-22 07:06:51 51°18.352 2°50.682 315 12.4 315 15.6
2011-08-22 07:06:57 51°18.367 2°50.659 314.9 12.4 315 15.7
2011-08-22 07:07:02 51°18.379 2°50.639 314.5 12.4 314 15.6
2011-08-22 07:07:07 51°18.39 2°50.619 313.6 12.4 313 15.9
2011-08-22 07:07:12 51°18.402 2°50.599 313.1 12.4 312 15.8
2011-08-22 07:07:17 51°18.413 2°50.578 312.3 12.4 312 16
2011-08-22 07:07:22 51°18.425 2°50.558 311.8 12.4 311 15.9
2011-08-22 07:07:26 51°18.434 2°50.541 311.3 12.4 311 15.9
2011-08-22 07:07:32 51°18.447 2°50.516 310.5 12.4 310 16.1
2011-08-22 07:07:37 51°18.458 2°50.495 310 12.4 310 15.9
2011-08-22 07:07:42 51°18.47 2°50.474 310 12.5 310 16.1
2011-08-22 07:07:46 51°18.478 2°50.457 309.9 12.4 310 16
2011-08-22 07:07:52 51°18.492 2°50.432 310 12.4 311 16.1
2011-08-22 07:07:57 51°18.503 2°50.411 310.2 12.4 311 16.1
2011-08-22 07:08:02 51°18.514 2°50.39 310.3 12.5 311 16.1
2011-08-22 07:08:07 51°18.526 2°50.369 310.6 12.5 312 16
2011-08-22 07:08:11 51°18.536 2°50.353 311.5 12.5 313 16
2011-08-22 07:08:17 51°18.55 2°50.329 312.8 12.5 314 16
2011-08-22 07:08:22 51°18.562 2°50.31 314.1 12.5 315 16.1
2011-08-22 07:08:27 51°18.575 2°50.291 315.5 12.5 316 16.1
2011-08-22 07:08:31 51°18.585 2°50.275 315.7 12.5 315 16
2011-08-22 07:08:37 51°18.6 2°50.252 315.4 12.5 316 16.1
2011-08-22 07:08:42 51°18.612 2°50.232 315.6 12.5 316 16.1
2011-08-22 07:08:46 51°18.622 2°50.217 315.9 12.5 316 16.1
2011-08-22 07:08:52 51°18.637 2°50.194 315.9 12.5 315 16
2011-08-22 07:08:57 51°18.649 2°50.175 315.7 12.4 316 15.8
2011-08-22 07:09:02 51°18.661 2°50.155 315.2 12.4 315 15.7
2011-08-22 07:09:07 51°18.674 2°50.135 314.9 12.4 314 15.8
2011-08-22 07:09:12 51°18.685 2°50.115 314.2 12.4 313 15.6
2011-08-22 07:09:17 51°18.697 2°50.095 313.6 12.5 313 15.4
2011-08-22 07:09:22 51°18.709 2°50.075 312.9 12.4 313 15.2
2011-08-22 07:09:27 51°18.72 2°50.054 312.6 12.5 312 15.1
2011-08-22 07:09:32 51°18.732 2°50.034 312.3 12.5 312 14.9
2011-08-22 07:09:37 51°18.743 2°50.013 311.6 12.4 311 14.9
2011-08-22 07:09:42 51°18.755 2°49.992 311.3 12.5 311 14.7
2011-08-22 07:09:47 51°18.766 2°49.972 310.8 12.4 311 14.6
2011-08-22 07:09:52 51°18.777 2°49.951 310.7 12.5 312 14.6
2011-08-22 07:09:57 51°18.789 2°49.931 311.9 12.5 313 14.5
2011-08-22 07:10:02 51°18.801 2°49.911 313.1 12.5 315 14.2
2011-08-22 07:10:07 51°18.814 2°49.892 314.7 12.5 316 14.2
2011-08-22 07:10:12 51°18.827 2°49.873 316.2 12.5 317 14.1
2011-08-22 07:10:17 51°18.84 2°49.855 317.4 12.5 318 13.9
2011-08-22 07:10:22 51°18.853 2°49.836 318.1 12.6 319 13.4
2011-08-22 07:10:26 51°18.863 2°49.821 318.6 12.6 319 12.9
2011-08-22 07:10:32 51°18.879 2°49.8 318.9 12.6 319 12.8
2011-08-22 07:10:37 51°18.892 2°49.782 319.2 12.6 319 13
2011-08-22 07:10:42 51°18.906 2°49.762 319.1 12.5 319 12.9
2011-08-22 07:10:47 51°18.919 2°49.745 318.7 12.5 319 12.8
2011-08-22 07:10:51 51°18.929 2°49.731 318.5 12.6 319 13
2011-08-22 07:10:57 51°18.945 2°49.709 318.6 12.5 319 12.6
2011-08-22 07:11:02 51°18.958 2°49.691 318.4 12.5 319 12.7
2011-08-22 07:11:07 51°18.971 2°49.672 318.3 12.5 319 12.6
2011-08-22 07:11:12 51°18.983 2°49.653 317.4 12.5 317 12.6
2011-08-22 07:11:17 51°18.996 2°49.634 316.4 12.5 317 12.9
2011-08-22 07:11:22 51°19.008 2°49.614 316 12.4 316 12.8
2011-08-22 07:11:27 51°19.02 2°49.595 315.2 12.4 314 12.9
2011-08-22 07:11:32 51°19.032 2°49.575 313.4 12.4 313 13
2011-08-22 07:11:37 51°19.043 2°49.554 311.9 12.4 311 13.1
2011-08-22 07:11:42 51°19.054 2°49.533 311 12.4 312 13.1
2011-08-22 07:11:47 51°19.065 2°49.512 310.2 12.4 310 13.5
2011-08-22 07:11:52 51°19.077 2°49.491 309.7 12.4 311 13.6
2011-08-22 07:11:57 51°19.088 2°49.471 310.4 12.4 311 13.8
2011-08-22 07:12:02 51°19.1 2°49.45 310.9 12.4 312 13.9
2011-08-22 07:12:07 51°19.111 2°49.43 311.3 12.4 313 14.2
2011-08-22 07:12:12 51°19.123 2°49.41 312 12.4 313 14.4
2011-08-22 07:12:17 51°19.135 2°49.39 312.7 12.4 314 14.5
2011-08-22 07:12:22 51°19.148 2°49.371 313.6 12.5 315 14.8
2011-08-22 07:12:27 51°19.16 2°49.352 314.4 12.4 316 14.8
2011-08-22 07:12:32 51°19.172 2°49.333 315.1 12.5 316 14.9
2011-08-22 07:12:37 51°19.185 2°49.314 315.4 12.5 317 14.9
2011-08-22 07:12:42 51°19.197 2°49.295 315.8 12.4 317 15
2011-08-22 07:12:47 51°19.21 2°49.276 316.3 12.4 317 14.9
2011-08-22 07:12:52 51°19.222 2°49.257 316 12.4 317 15.1
2011-08-22 07:12:57 51°19.235 2°49.238 315.8 12.4 316 15
2011-08-22 07:13:02 51°19.247 2°49.219 315.4 12.4 316 15.2
2011-08-22 07:13:07 51°19.259 2°49.2 315.1 12.4 316 15
2011-08-22 07:13:12 51°19.271 2°49.18 314.6 12.4 315 14.9
2011-08-22 07:13:17 51°19.283 2°49.161 313.6 12.3 313 14.5
2011-08-22 07:13:22 51°19.294 2°49.14 312.2 12.3 312 14.6
2011-08-22 07:13:27 51°19.305 2°49.12 310.8 12.2 311 14.8
2011-08-22 07:13:32 51°19.316 2°49.099 310.2 12.3 311 15.3
2011-08-22 07:13:37 51°19.328 2°49.079 309.8 12.3 311 15.8
2011-08-22 07:13:42 51°19.339 2°49.058 310.2 12.3 312 16.2
2011-08-22 07:13:47 51°19.35 2°49.038 311.1 12.3 312 16.8
2011-08-22 07:13:52 51°19.362 2°49.018 310.9 12.4 312 17.2
2011-08-22 07:13:57 51°19.373 2°48.998 310.7 12.4 312 17.4
2011-08-22 07:14:02 51°19.385 2°48.978 311.4 12.4 314 17.6
2011-08-22 07:14:06 51°19.395 2°48.962 312.2 12.4 314 18
2011-08-22 07:14:12 51°19.409 2°48.938 313 12.4 314 18
2011-08-22 07:14:17 51°19.421 2°48.919 313.3 12.4 315 18
2011-08-22 07:14:22 51°19.433 2°48.9 314 12.4 316 18.1
2011-08-22 07:14:26 51°19.443 2°48.885 314.6 12.5 316 18.3
2011-08-22 07:14:32 51°19.458 2°48.862 315.5 12.4 317 18.5
2011-08-22 07:14:37 51°19.471 2°48.844 316.2 12.4 317 18.7
2011-08-22 07:14:42 51°19.484 2°48.825 315.9 12.4 317 18.8
2011-08-22 07:14:47 51°19.496 2°48.806 315.7 12.4 317 19.1
2011-08-22 07:14:52 51°19.509 2°48.787 315.7 12.4 316 19.2
2011-08-22 07:14:57 51°19.521 2°48.768 315.1 12.4 316 19.3
2011-08-22 07:15:02 51°19.534 2°48.749 315 12.4 316 19.5
2011-08-22 07:15:07 51°19.546 2°48.729 314.5 12.4 315 19.6
2011-08-22 07:15:11 51°19.555 2°48.714 313.6 12.4 313 19.7
2011-08-22 07:15:17 51°19.569 2°48.689 312.2 12.4 312 19.9
2011-08-22 07:15:22 51°19.58 2°48.668 311 12.4 311 20.1
2011-08-22 07:15:26 51°19.589 2°48.652 310.4 12.4 312 20.3
2011-08-22 07:15:32 51°19.602 2°48.627 310 12.4 310 20.4
2011-08-22 07:15:37 51°19.613 2°48.606 309.3 12.4 311 20.8
2011-08-22 07:15:42 51°19.625 2°48.585 309.8 12.4 311 21
2011-08-22 07:15:47 51°19.636 2°48.565 310.4 12.4 312 21.2
2011-08-22 07:15:52 51°19.648 2°48.544 310.7 12.5 312 21.5
2011-08-22 07:15:57 51°19.659 2°48.524 311.1 12.5 313 21.5
2011-08-22 07:16:02 51°19.671 2°48.503 312 12.5 313 21.8
2011-08-22 07:16:07 51°19.683 2°48.484 313 12.5 314 22
2011-08-22 07:16:12 51°19.696 2°48.464 313.9 12.6 315 22.3
2011-08-22 07:16:17 51°19.708 2°48.445 314.8 12.6 316 22.6
2011-08-22 07:16:22 51°19.721 2°48.426 315.3 12.6 316 22.8
2011-08-22 07:16:27 51°19.734 2°48.406 315.8 12.6 317 22.9
2011-08-22 07:16:32 51°19.747 2°48.387 315.8 12.7 317 23.3
2011-08-22 07:16:37 51°19.76 2°48.368 316.1 12.6 317 23.3
2011-08-22 07:16:42 51°19.773 2°48.349 316.1 12.6 316 23.3
2011-08-22 07:16:47 51°19.785 2°48.329 315 12.6 315 23.3
2011-08-22 07:16:52 51°19.797 2°48.309 314 12.6 315 23.3
2011-08-22 07:16:57 51°19.809 2°48.289 313.2 12.6 313 23.3
2011-08-22 07:17:02 51°19.821 2°48.268 311.7 12.6 313 23.5
2011-08-22 07:17:07 51°19.833 2°48.247 310.9 12.6 312 23.8
2011-08-22 07:17:12 51°19.844 2°48.226 310.4 12.6 312 23.5
2011-08-22 07:17:17 51°19.855 2°48.205 310.4 12.6 312 23.7
2011-08-22 07:17:22 51°19.867 2°48.184 310.2 12.6 312 23.7
2011-08-22 07:17:27 51°19.878 2°48.163 310.2 12.6 312 23.9
2011-08-22 07:17:32 51°19.89 2°48.143 310.4 12.6 313 23.6
2011-08-22 07:17:37 51°19.902 2°48.122 310.6 12.6 312 23.8
2011-08-22 07:17:42 51°19.914 2°48.102 310.7 12.7 313 23.9
2011-08-22 07:17:47 51°19.926 2°48.081 310.9 12.6 313 23.8
2011-08-22 07:17:52 51°19.938 2°48.061 311.2 12.6 313 23.8
2011-08-22 07:17:57 51°19.95 2°48.041 311.5 12.6 313 23.7
2011-08-22 07:18:02 51°19.963 2°48.02 311.6 12.7 313 23.8
2011-08-22 07:18:07 51°19.974 2°48 311.5 12.6 313 23.7
2011-08-22 07:18:12 51°19.986 2°47.979 311.1 12.6 312 23.6
2011-08-22 07:18:17 51°19.998 2°47.959 310.8 12.6 313 23.7
2011-08-22 07:18:22 51°20.01 2°47.939 311.4 12.7 313 23.7
2011-08-22 07:18:27 51°20.022 2°47.918 311.6 12.7 314 23.6
2011-08-22 07:18:32 51°20.035 2°47.898 312 12.7 314 23.6
2011-08-22 07:18:37 51°20.047 2°47.878 312.6 12.7 315 23.6
2011-08-22 07:18:42 51°20.06 2°47.859 313.4 12.7 316 23.5
2011-08-22 07:18:47 51°20.073 2°47.84 315.1 12.7 317 23.5
2011-08-22 07:18:52 51°20.086 2°47.821 315.5 12.7 317 23.6
2011-08-22 07:18:57 51°20.099 2°47.802 316.4 12.7 318 23.4
2011-08-22 07:19:02 51°20.112 2°47.783 316.5 12.7 318 23.5
2011-08-22 07:19:07 51°20.125 2°47.764 316.6 12.7 319 23.3
2011-08-22 07:19:12 51°20.139 2°47.745 316.8 12.7 318 23.2
2011-08-22 07:19:17 51°20.152 2°47.726 316.6 12.7 318 23.2
2011-08-22 07:19:22 51°20.165 2°47.707 316.1 12.7 317 23.1
2011-08-22 07:19:27 51°20.178 2°47.688 315.7 12.7 318 23.1
2011-08-22 07:19:31 51°20.188 2°47.673 315.8 12.6 317 22.6
2011-08-22 07:19:37 51°20.203 2°47.65 315.4 12.6 316 22.6
2011-08-22 07:19:42 51°20.216 2°47.63 314.5 12.6 314 22.4
2011-08-22 07:19:46 51°20.225 2°47.614 313 12.6 313 22.4
2011-08-22 07:19:52 51°20.239 2°47.589 311.9 12.6 312 22.2
2011-08-22 07:19:57 51°20.25 2°47.568 311.1 12.6 311 21.9
2011-08-22 07:20:02 51°20.262 2°47.547 311.1 12.6 312 21.1
2011-08-22 07:20:07 51°20.273 2°47.526 311.3 12.6 311 21.4
2011-08-22 07:20:11 51°20.283 2°47.509 311.8 12.5 313 21.2
2011-08-22 07:20:17 51°20.297 2°47.486 313.1 12.5 314 20.7
2011-08-22 07:20:22 51°20.309 2°47.466 314.1 12.5 314 20.7
2011-08-22 07:20:27 51°20.322 2°47.446 315 12.5 316 20.5
2011-08-22 07:20:32 51°20.334 2°47.427 315.7 12.5 316 20.2
2011-08-22 07:20:37 51°20.347 2°47.408 315.9 12.5 316 20.4
2011-08-22 07:20:42 51°20.359 2°47.388 315.9 12.5 316 20.3
2011-08-22 07:20:47 51°20.372 2°47.369 315.8 12.6 316 19.8
2011-08-22 07:20:52 51°20.384 2°47.349 315.7 12.5 315 18.8
2011-08-22 07:20:57 51°20.396 2°47.329 315.3 12.5 314 19.5
2011-08-22 07:21:02 51°20.408 2°47.309 314.7 12.5 314 20.2
2011-08-22 07:21:07 51°20.42 2°47.289 313.7 12.5 313 20
2011-08-22 07:21:12 51°20.432 2°47.269 313.4 12.6 313 19.7
2011-08-22 07:21:17 51°20.443 2°47.249 313.1 12.6 314 18.4
2011-08-22 07:21:22 51°20.455 2°47.228 313.4 12.6 314 18.8
2011-08-22 07:21:26 51°20.465 2°47.212 313.6 12.6 313 19.2
2011-08-22 07:21:32 51°20.479 2°47.187 313.1 12.6 313 19.6
2011-08-22 07:21:37 51°20.491 2°47.166 312.2 12.6 312 18.7
2011-08-22 07:21:42 51°20.502 2°47.145 311.2 12.6 311 18.4
2011-08-22 07:21:47 51°20.514 2°47.124 310.7 12.6 311 18.6
2011-08-22 07:21:52 51°20.525 2°47.103 310.2 12.6 311 19.1
2011-08-22 07:21:57 51°20.536 2°47.082 310.1 12.6 311 19.2
2011-08-22 07:22:02 51°20.548 2°47.061 310 12.6 311 17.8
2011-08-22 07:22:07 51°20.559 2°47.04 310.3 12.6 311 18
2011-08-22 07:22:12 51°20.571 2°47.019 310.4 12.6 311 18.7
2011-08-22 07:22:17 51°20.583 2°46.998 310.5 12.6 312 19.4
2011-08-22 07:22:22 51°20.594 2°46.977 311.3 12.6 312 19.7
2011-08-22 07:22:27 51°20.606 2°46.956 311.5 12.6 312 18.9
2011-08-22 07:22:32 51°20.618 2°46.936 312.1 12.6 313 18.1
2011-08-22 07:22:37 51°20.63 2°46.916 312.4 12.6 313 18.7
2011-08-22 07:22:42 51°20.642 2°46.895 312.9 12.6 313 20.2
2011-08-22 07:22:47 51°20.654 2°46.875 312.9 12.7 314 20.7
2011-08-22 07:22:52 51°20.666 2°46.855 312.9 12.7 313 21.2
2011-08-22 07:22:57 51°20.678 2°46.834 312.9 12.6 313 21.3
2011-08-22 07:23:02 51°20.69 2°46.814 312.8 12.7 314 21.4
2011-08-22 07:23:07 51°20.703 2°46.794 313.3 12.7 315 20.7
2011-08-22 07:23:12 51°20.715 2°46.775 314.5 12.7 316 18.2
2011-08-22 07:23:17 51°20.728 2°46.756 315.4 12.6 317 17.5
2011-08-22 07:23:22 51°20.741 2°46.737 316.6 12.7 318 19
2011-08-22 07:23:26 51°20.751 2°46.722 317.2 12.6 319 19.9
2011-08-22 07:23:32 51°20.767 2°46.7 317.8 12.6 319 20.8
2011-08-22 07:23:37 51°20.78 2°46.682 317.8 12.6 319 20.8
2011-08-22 07:23:42 51°20.793 2°46.663 317.6 12.6 317 21.7
2011-08-22 07:23:46 51°20.804 2°46.648 316.8 12.6 317 22.1
2011-08-22 07:23:52 51°20.819 2°46.625 316.4 12.6 317 22.9
2011-08-22 07:23:57 51°20.832 2°46.606 316.4 12.6 317 23.5
2011-08-22 07:24:02 51°20.844 2°46.587 316.1 12.5 318 23.9
2011-08-22 07:24:07 51°20.857 2°46.568 316.3 12.6 317 23.3
2011-08-22 07:24:11 51°20.867 2°46.553 315.8 12.5 317 23.2
2011-08-22 07:24:17 51°20.882 2°46.53 315.1 12.5 316 21.8
2011-08-22 07:24:22 51°20.895 2°46.511 314.4 12.5 316 22.8
2011-08-22 07:24:27 51°20.907 2°46.491 314 12.5 315 23
2011-08-22 07:24:32 51°20.919 2°46.471 313.3 12.4 315 23.1
2011-08-22 07:24:37 51°20.931 2°46.452 312.9 12.4 315 23.5
2011-08-22 07:24:42 51°20.943 2°46.432 312.6 12.4 314 24.1
2011-08-22 07:24:47 51°20.955 2°46.413 313.1 12.5 315 24
2011-08-22 07:24:52 51°20.968 2°46.393 313.4 12.5 315 24.6
2011-08-22 07:24:57 51°20.98 2°46.374 313.8 12.5 316 24.8
2011-08-22 07:25:02 51°20.993 2°46.355 314.4 12.5 316 25.2
2011-08-22 07:25:07 51°21.005 2°46.336 314.5 12.5 317 25.6
2011-08-22 07:25:12 51°21.018 2°46.318 315.2 12.5 318 25.7
2011-08-22 07:25:17 51°21.031 2°46.299 316 12.5 318 26
2011-08-22 07:25:22 51°21.044 2°46.281 316.6 12.5 318 26.2
2011-08-22 07:25:27 51°21.056 2°46.261 315.4 12.4 315 26.3
2011-08-22 07:25:32 51°21.068 2°46.242 313.6 12.4 314 26.4
2011-08-22 07:25:37 51°21.08 2°46.221 312.2 12.4 313 26.3
2011-08-22 07:25:42 51°21.091 2°46.201 310.7 12.3 311 26.3
2011-08-22 07:25:47 51°21.102 2°46.18 309 12.3 310 26.2
2011-08-22 07:25:52 51°21.112 2°46.158 307.6 12.3 308 25.9
2011-08-22 07:25:57 51°21.123 2°46.137 306.4 12.4 308 25.1
2011-08-22 07:26:02 51°21.133 2°46.116 306.5 12.4 309 25.6
2011-08-22 07:26:07 51°21.144 2°46.095 307.8 12.4 310 26
2011-08-22 07:26:12 51°21.156 2°46.074 307.9 12.4 310 26.5
2011-08-22 07:26:17 51°21.167 2°46.053 308.4 12.4 310 26.8
2011-08-22 07:26:22 51°21.178 2°46.032 309 12.4 312 26.9
2011-08-22 07:26:27 51°21.19 2°46.012 310 12.4 312 27
2011-08-22 07:26:32 51°21.201 2°45.992 310.6 12.4 313 26.7
2011-08-22 07:26:37 51°21.213 2°45.972 311.2 12.4 314 27.1
2011-08-22 07:26:42 51°21.225 2°45.952 311.8 12.5 314 27.3
2011-08-22 07:26:47 51°21.238 2°45.933 312.7 12.5 315 27.4
2011-08-22 07:26:52 51°21.25 2°45.913 312.8 12.4 314 27.3
2011-08-22 07:26:57 51°21.262 2°45.893 312.2 12.5 314 27.4
2011-08-22 07:27:02 51°21.274 2°45.873 312.1 12.5 314 27.2
2011-08-22 07:27:07 51°21.285 2°45.853 311.8 12.5 313 27.2
2011-08-22 07:27:12 51°21.297 2°45.833 310.9 12.5 312 27.1
2011-08-22 07:27:17 51°21.308 2°45.812 309.9 12.5 311 27.1
2011-08-22 07:27:22 51°21.319 2°45.79 308.4 12.5 309 27.3
2011-08-22 07:27:27 51°21.33 2°45.769 307.9 12.3 310 27.1
2011-08-22 07:27:32 51°21.34 2°45.748 307.3 12 309 27.4
2011-08-22 07:27:37 51°21.351 2°45.729 306.9 11.6 311 27.2
2011-08-22 07:27:42 51°21.361 2°45.71 307.6 11.3 311 27
2011-08-22 07:27:47 51°21.371 2°45.691 307.8 10.9 311 27
2011-08-22 07:27:52 51°21.381 2°45.674 308.1 10.4 312 27.1
2011-08-22 07:27:57 51°21.39 2°45.658 308.6 10 312 27
2011-08-22 07:28:02 51°21.399 2°45.643 309.3 9.6 314 26.8
2011-08-22 07:28:07 51°21.408 2°45.628 309.9 9.2 314 27.1
2011-08-22 07:28:12 51°21.417 2°45.614 310.5 9 315 27
2011-08-22 07:28:17 51°21.426 2°45.6 310.8 8.8 315 27.1
2011-08-22 07:28:22 51°21.434 2°45.587 311.5 8.5 316 27
2011-08-22 07:28:27 51°21.442 2°45.574 311.8 8.3 316 26.8
2011-08-22 07:28:32 51°21.45 2°45.562 311.9 8.2 316 26.8
2011-08-22 07:28:37 51°21.458 2°45.549 312 8.1 316 26.8
2011-08-22 07:28:42 51°21.466 2°45.537 311.9 7.9 316 26.6
2011-08-22 07:28:47 51°21.474 2°45.525 311.6 7.8 315 26.6
2011-08-22 07:28:52 51°21.481 2°45.512 311.2 7.7 315 26.3
2011-08-22 07:28:57 51°21.488 2°45.5 309.7 7.6 313 26.3
2011-08-22 07:29:02 51°21.495 2°45.488 307.9 7.5 312 26.2
2011-08-22 07:29:07 51°21.502 2°45.475 306.5 7.5 311 26
2011-08-22 07:29:11 51°21.507 2°45.465 305.6 7.4 310 26.1
2011-08-22 07:29:17 51°21.515 2°45.45 304.8 7.4 309 26
2011-08-22 07:29:22 51°21.521 2°45.437 304 7.4 309 25.8
2011-08-22 07:29:27 51°21.528 2°45.424 303.2 7.3 308 25.9
2011-08-22 07:29:32 51°21.534 2°45.411 302.2 7.3 307 25.7
2011-08-22 07:29:37 51°21.54 2°45.398 301.5 7.3 306 25.6
2011-08-22 07:29:42 51°21.545 2°45.385 300.6 7.2 305 25.4
2011-08-22 07:29:47 51°21.551 2°45.372 300.2 7.2 305 25.7
2011-08-22 07:29:52 51°21.557 2°45.359 300 7.2 305 25.4
2011-08-22 07:29:57 51°21.562 2°45.346 299.7 7.2 305 25.4
2011-08-22 07:30:02 51°21.568 2°45.333 299.7 7.2 305 25.1
2011-08-22 07:30:07 51°21.574 2°45.32 299.8 7.2 305 25.2
2011-08-22 07:30:12 51°21.58 2°45.306 300.2 7.2 305 25.3
2011-08-22 07:30:17 51°21.585 2°45.294 300.6 7.2 306 25
2011-08-22 07:30:22 51°21.591 2°45.281 300.9 7.2 306 24.9
2011-08-22 07:30:27 51°21.597 2°45.268 301.1 7.2 306 24.9
2011-08-22 07:30:31 51°21.602 2°45.258 301.2 7.3 306 24.7
2011-08-22 07:30:37 51°21.609 2°45.242 301.1 7.3 306 24.6
2011-08-22 07:30:42 51°21.615 2°45.229 301.1 7.2 306 24.4
2011-08-22 07:30:47 51°21.621 2°45.216 300.7 7.2 305 24.5
2011-08-22 07:30:52 51°21.627 2°45.203 300.7 7.2 306 24.5
2011-08-22 07:30:57 51°21.633 2°45.19 300.9 7.3 306 24.3
2011-08-22 07:31:02 51°21.638 2°45.177 301.1 7.3 307 24.4
2011-08-22 07:31:07 51°21.645 2°45.164 301.8 7.3 308 24.3
2011-08-22 07:31:12 51°21.651 2°45.152 303.5 7.4 309 24.3
2011-08-22 07:31:17 51°21.658 2°45.139 304.9 7.4 311 24.2
2011-08-22 07:31:22 51°21.665 2°45.127 306.5 7.4 312 24.1
2011-08-22 07:31:27 51°21.672 2°45.115 308.4 7.4 314 24.3
2011-08-22 07:31:32 51°21.679 2°45.103 310 7.4 315 24.2
2011-08-22 07:31:37 51°21.686 2°45.092 311.3 7.4 316 24.1
2011-08-22 07:31:42 51°21.693 2°45.081 312.3 7.4 317 24.1
2011-08-22 07:31:47 51°21.701 2°45.069 313.7 7.4 317 23.9
2011-08-22 07:31:52 51°21.709 2°45.058 314.4 7.4 318 24.1
2011-08-22 07:31:57 51°21.716 2°45.047 314.9 7.4 318 24.1
2011-08-22 07:32:02 51°21.724 2°45.036 315.3 7.4 318 24
2011-08-22 07:32:07 51°21.732 2°45.025 315.7 7.3 318 24.1
2011-08-22 07:32:12 51°21.739 2°45.015 315.7 7.2 318 24
2011-08-22 07:32:17 51°21.746 2°45.004 315.4 7 317 23.9
2011-08-22 07:32:22 51°21.753 2°44.994 314.8 6.8 317 24
2011-08-22 07:32:26 51°21.758 2°44.985 314.3 6.7 317 23.9
2011-08-22 07:32:32 51°21.766 2°44.974 313.9 6.5 316 23.9
2011-08-22 07:32:37 51°21.772 2°44.964 313.6 6.4 316 23.7
2011-08-22 07:32:42 51°21.778 2°44.954 313.6 6.2 316 23.8
2011-08-22 07:32:47 51°21.785 2°44.945 313.4 6.2 315 23.7
2011-08-22 07:32:52 51°21.79 2°44.935 313.2 6 315 23.6
2011-08-22 07:32:57 51°21.796 2°44.925 313 6 315 23.7
2011-08-22 07:33:02 51°21.802 2°44.916 312.8 5.9 315 23.7
2011-08-22 07:33:07 51°21.808 2°44.907 312.5 5.8 314 23.6
2011-08-22 07:33:12 51°21.813 2°44.897 312.4 5.8 314 23.5
2011-08-22 07:33:17 51°21.819 2°44.888 312.3 5.8 315 23.5
2011-08-22 07:33:22 51°21.825 2°44.879 312.5 5.7 315 23.5
2011-08-22 07:33:27 51°21.83 2°44.87 312.9 5.7 315 23.1
2011-08-22 07:33:32 51°21.836 2°44.862 313.2 5.7 316 23.2
2011-08-22 07:33:37 51°21.841 2°44.853 313.2 5.7 316 23.2
2011-08-22 07:33:42 51°21.847 2°44.844 313.2 5.6 316 23
2011-08-22 07:33:47 51°21.852 2°44.836 313.4 5.6 317 23
2011-08-22 07:33:52 51°21.858 2°44.827 313.6 5.6 316 22.7
2011-08-22 07:33:57 51°21.864 2°44.819 313.8 5.6 317 22.7
2011-08-22 07:34:02 51°21.869 2°44.81 313.6 5.6 317 22.5
2011-08-22 07:34:07 51°21.875 2°44.801 313.6 5.6 316 22.1
2011-08-22 07:34:12 51°21.88 2°44.793 313 5.5 315 22.1
2011-08-22 07:34:17 51°21.885 2°44.784 312.2 5.5 314 21.9
2011-08-22 07:34:22 51°21.89 2°44.775 311.6 5.5 314 21.8
2011-08-22 07:34:27 51°21.896 2°44.766 310.8 5.5 313 22.1
2011-08-22 07:34:32 51°21.9 2°44.757 310.2 5.4 312 22.9
2011-08-22 07:34:37 51°21.905 2°44.748 309.7 5.4 311 23
2011-08-22 07:34:42 51°21.91 2°44.739 309 5.4 310 23.2
2011-08-22 07:34:46 51°21.914 2°44.732 308.4 5.4 310 23
2011-08-22 07:34:52 51°21.919 2°44.721 307.9 5.4 309 22.8
2011-08-22 07:34:57 51°21.924 2°44.711 307.5 5.4 309 23.2
2011-08-22 07:35:02 51°21.929 2°44.702 307.2 5.4 309 23.5
2011-08-22 07:35:06 51°21.933 2°44.694 307.5 5.4 310 23.8
2011-08-22 07:35:12 51°21.938 2°44.684 307.8 5.4 310 23.9
2011-08-22 07:35:17 51°21.943 2°44.674 308.1 5.4 310 23.7
2011-08-22 07:35:22 51°21.948 2°44.665 308.4 5.4 311 24.1
2011-08-22 07:35:27 51°21.953 2°44.656 308.6 5.5 310 24.2
2011-08-22 07:35:32 51°21.958 2°44.646 308.9 5.6 311 24.4
2011-08-22 07:35:37 51°21.963 2°44.637 309.3 5.8 311 24.6
2011-08-22 07:35:42 51°21.969 2°44.627 309.7 5.9 312 24.8
2011-08-22 07:35:47 51°21.974 2°44.617 310.1 6 311 24.7
2011-08-22 07:35:52 51°21.98 2°44.607 310.1 6.1 312 25.1
2011-08-22 07:35:57 51°21.986 2°44.597 310.2 6.2 312 24.7
2011-08-22 07:36:02 51°21.992 2°44.587 310.2 6.3 313 24.9
2011-08-22 07:36:07 51°21.998 2°44.576 310.7 6.3 313 24.7
2011-08-22 07:36:12 51°22.004 2°44.566 311.1 6.3 313 25
2011-08-22 07:36:17 51°22.01 2°44.556 311.5 6.2 314 24.9
2011-08-22 07:36:22 51°22.016 2°44.546 311.8 6.2 314 24.7
2011-08-22 07:36:27 51°22.021 2°44.537 312.2 6.1 315 25
2011-08-22 07:36:32 51°22.027 2°44.527 312.5 6 315 24.8
2011-08-22 07:36:37 51°22.033 2°44.518 312.9 5.9 315 25.1
2011-08-22 07:36:42 51°22.039 2°44.509 312.9 5.9 315 25.2
2011-08-22 07:36:47 51°22.045 2°44.499 312.9 5.9 315 25.1
2011-08-22 07:36:52 51°22.05 2°44.49 312.9 5.8 315 25.2
2011-08-22 07:36:57 51°22.056 2°44.481 312.7 5.8 314 25.4
2011-08-22 07:37:02 51°22.061 2°44.472 312 5.7 313 25
2011-08-22 07:37:07 51°22.067 2°44.463 310.8 5.6 313 25.2
2011-08-22 07:37:12 51°22.072 2°44.454 310.3 5.6 312 25.3
2011-08-22 07:37:17 51°22.077 2°44.445 309 5.5 311 24.9
2011-08-22 07:37:22 51°22.082 2°44.436 308.2 5.4 310 25.1
2011-08-22 07:37:27 51°22.086 2°44.426 307.3 5.4 309 25.1
2011-08-22 07:37:32 51°22.091 2°44.417 306.8 5.3 309 25
2011-08-22 07:37:37 51°22.096 2°44.408 305.9 5.3 308 25.2
2011-08-22 07:37:42 51°22.101 2°44.399 305.7 5.3 309 25.1
2011-08-22 07:37:47 51°22.106 2°44.39 305.6 5.3 309 25
2011-08-22 07:37:51 51°22.11 2°44.382 305.6 5.3 309 25.2
2011-08-22 07:37:57 51°22.117 2°44.37 305.3 5.3 308 25
2011-08-22 07:38:02 51°22.121 2°44.362 304.9 5.2 307 25.1
2011-08-22 07:38:07 51°22.125 2°44.354 304.8 5.2 308 25
2011-08-22 07:38:12 51°22.129 2°44.345 304.4 5.1 308 25.1
2011-08-22 07:38:17 51°22.132 2°44.335 304.2 5 307 25.4
2011-08-22 07:38:22 51°22.136 2°44.326 304.2 5 308 25.3
2011-08-22 07:38:27 51°22.141 2°44.318 304.2 4.9 308 25.3
2011-08-22 07:38:32 51°22.146 2°44.31 304.2 4.9 308 25.6
2011-08-22 07:38:37 51°22.151 2°44.302 304.1 4.9 306 25.6
2011-08-22 07:38:42 51°22.156 2°44.294 303.8 4.8 307 25.5
2011-08-22 07:38:47 51°22.16 2°44.286 303.8 4.8 307 25.8
2011-08-22 07:38:52 51°22.164 2°44.277 303.8 4.8 307 25.7
2011-08-22 07:38:57 51°22.167 2°44.268 303.9 4.7 307 25.7
2011-08-22 07:39:02 51°22.17 2°44.259 304 4.7 307 26
2011-08-22 07:39:06 51°22.173 2°44.253 304 4.7 307 26
2011-08-22 07:39:12 51°22.177 2°44.242 304 4.7 306 26.1
2011-08-22 07:39:17 51°22.181 2°44.233 303.9 4.7 306 26.1
2011-08-22 07:39:22 51°22.185 2°44.225 303.8 4.8 306 26.1
2011-08-22 07:39:27 51°22.189 2°44.216 303.8 4.8 306 25.8
2011-08-22 07:39:31 51°22.192 2°44.209 303.8 4.9 306 25.8
2011-08-22 07:39:37 51°22.197 2°44.199 303.9 5 306 25.5
2011-08-22 07:39:42 51°22.203 2°44.191 304 5 306 25.3
2011-08-22 07:39:47 51°22.207 2°44.182 304.3 5.1 307 25
2011-08-22 07:39:52 51°22.212 2°44.173 304.9 5.2 308 23.7
2011-08-22 07:39:57 51°22.216 2°44.163 305.4 5.2 308 23.7
2011-08-22 07:40:02 51°22.22 2°44.154 306.1 5.3 309 24.3
2011-08-22 07:40:07 51°22.224 2°44.145 306.5 5.3 309 24.5
2011-08-22 07:40:12 51°22.229 2°44.135 306.9 5.3 310 24.9
2011-08-22 07:40:17 51°22.233 2°44.126 307.2 5.2 310 24.9
2011-08-22 07:40:22 51°22.237 2°44.117 307.6 5 311 25.6
2011-08-22 07:40:27 51°22.241 2°44.109 308.1 4.8 311 25.6
2011-08-22 07:40:32 51°22.245 2°44.102 309.1 4.5 313 25.7
2011-08-22 07:40:37 51°22.249 2°44.094 310 4.4 313 25.9
2011-08-22 07:40:42 51°22.253 2°44.088 311.3 4.2 315 26.1
2011-08-22 07:40:47 51°22.257 2°44.082 312.4 4 316 26.3
2011-08-22 07:40:52 51°22.26 2°44.076 313.7 3.7 318 26.4
2011-08-22 07:40:57 51°22.264 2°44.071 315 3.5 320 26.5
2011-08-22 07:41:02 51°22.268 2°44.067 316.5 3.3 322 26.7
2011-08-22 07:41:07 51°22.271 2°44.063 318.9 3.1 325 26.3
2011-08-22 07:41:12 51°22.275 2°44.059 320.7 2.9 328 26.7
2011-08-22 07:41:17 51°22.279 2°44.057 322.9 2.8 329 26.5
2011-08-22 07:41:22 51°22.282 2°44.054 325.2 2.6 330 26.3
2011-08-22 07:41:27 51°22.286 2°44.052 327.4 2.5 333 26.2
2011-08-22 07:41:32 51°22.289 2°44.05 329.3 2.4 334 26.5
2011-08-22 07:41:37 51°22.292 2°44.048 330.5 1.9 338 26.6
2011-08-22 07:41:42 51°22.294 2°44.046 331.8 1.7 339 26.1
2011-08-22 07:41:47 51°22.296 2°44.046 333.6 1.8 345 26.2
2011-08-22 07:41:52 51°22.298 2°44.044 335.4 1.8 342 26.1
2011-08-22 07:41:57 51°22.3 2°44.042 337.3 2 343 26.2
2011-08-22 07:42:02 51°22.303 2°44.04 339 2.6 342 26.5
2011-08-22 07:42:07 51°22.308 2°44.037 339.8 3.3 340 26.3
2011-08-22 07:42:12 51°22.312 2°44.035 340 3.8 340 26.5
2011-08-22 07:42:17 51°22.318 2°44.031 338.3 4.2 337 26.4
2011-08-22 07:42:22 51°22.324 2°44.027 334.8 4.5 334 26.3
2011-08-22 07:42:27 51°22.33 2°44.021 330.3 4.8 329 26.8
2011-08-22 07:42:32 51°22.335 2°44.014 324.9 5.1 323 26.7
2011-08-22 07:42:37 51°22.341 2°44.006 319.4 5.3 317 26.7
2011-08-22 07:42:42 51°22.346 2°43.998 313.7 5.4 313 27.1
2011-08-22 07:42:47 51°22.351 2°43.988 308.3 5.6 308 27.1
2011-08-22 07:42:51 51°22.354 2°43.98 303.2 5.8 304 27.2
2011-08-22 07:42:57 51°22.359 2°43.966 299.9 6 302 27.4
2011-08-22 07:43:02 51°22.364 2°43.954 298.2 6.2 300 27.3
2011-08-22 07:43:07 51°22.368 2°43.942 297.1 6.4 300 27.5
2011-08-22 07:43:12 51°22.373 2°43.929 296.9 6.6 300 27.7
2011-08-22 07:43:17 51°22.378 2°43.916 297.1 6.8 300 27.6
2011-08-22 07:43:22 51°22.382 2°43.903 297.7 6.9 301 27.5
2011-08-22 07:43:27 51°22.387 2°43.89 298.6 7 302 27.7
2011-08-22 07:43:32 51°22.392 2°43.877 299.5 7.1 302 27.2
2011-08-22 07:43:37 51°22.398 2°43.863 300.3 7.2 304 27.2
2011-08-22 07:43:42 51°22.404 2°43.85 302 7.3 305 26.6
2011-08-22 07:43:47 51°22.409 2°43.837 304.3 7.3 307 26.1
2011-08-22 07:43:52 51°22.416 2°43.824 305.9 7.4 309 25.4
2011-08-22 07:43:57 51°22.422 2°43.812 308.1 7.4 311 24.8
2011-08-22 07:44:02 51°22.429 2°43.8 310.2 7.5 313 26
2011-08-22 07:44:07 51°22.437 2°43.788 311.7 7.5 313 26.3
2011-08-22 07:44:12 51°22.444 2°43.776 312.6 7.5 315 26.9
2011-08-22 07:44:17 51°22.451 2°43.764 313.9 7.6 316 27.2
2011-08-22 07:44:22 51°22.459 2°43.752 314.7 7.5 317 26.8
2011-08-22 07:44:27 51°22.466 2°43.74 314.8 7.6 315 26.9
2011-08-22 07:44:31 51°22.472 2°43.731 313.7 7.6 315 27.4
2011-08-22 07:44:37 51°22.481 2°43.716 312.3 7.6 313 27.2
2011-08-22 07:44:42 51°22.488 2°43.704 311.4 7.6 312 27
2011-08-22 07:44:46 51°22.494 2°43.694 310.1 7.7 312 27.3
2011-08-22 07:44:52 51°22.503 2°43.679 309.2 7.7 311 27.4
2011-08-22 07:44:57 51°22.51 2°43.667 308.5 7.6 311 27.2
2011-08-22 07:45:02 51°22.517 2°43.654 308.5 7.6 311 26.9
2011-08-22 07:45:07 51°22.523 2°43.641 309 7.6 311 26.9
2011-08-22 07:45:12 51°22.53 2°43.627 309.2 7.7 310 26.5
2011-08-22 07:45:17 51°22.536 2°43.614 308.6 7.7 310 25
2011-08-22 07:45:22 51°22.543 2°43.601 307.7 7.7 309 26
2011-08-22 07:45:27 51°22.549 2°43.587 307.2 7.7 310 26.2
2011-08-22 07:45:32 51°22.557 2°43.575 307.6 7.7 311 26.4
2011-08-22 07:45:37 51°22.563 2°43.562 308.7 7.7 312 25.4
2011-08-22 07:45:42 51°22.571 2°43.549 310.2 7.7 314 24.2
2011-08-22 07:45:47 51°22.578 2°43.537 312 7.7 314 24.4
2011-08-22 07:45:52 51°22.586 2°43.525 314 7.7 317 25.4
2011-08-22 07:45:57 51°22.594 2°43.513 314.9 7.7 316 25.6
2011-08-22 07:46:02 51°22.602 2°43.502 314.5 7.7 317 26.2
2011-08-22 07:46:07 51°22.609 2°43.489 313.8 7.7 315 27.2
2011-08-22 07:46:12 51°22.616 2°43.477 312.8 7.7 314 27.2
2011-08-22 07:46:17 51°22.623 2°43.465 311.4 7.4 313 27.6
2011-08-22 07:46:22 51°22.63 2°43.453 310.2 7 312 27.8
2011-08-22 07:46:27 51°22.636 2°43.442 309.4 6.7 310 27.7
2011-08-22 07:46:32 51°22.641 2°43.431 308.1 6.4 308 27.8
2011-08-22 07:46:37 51°22.646 2°43.42 306.5 6.1 306 27.8
2011-08-22 07:46:42 51°22.651 2°43.409 304.8 5.8 306 28.1
2011-08-22 07:46:47 51°22.656 2°43.399 303.7 5.6 306 28.2
2011-08-22 07:46:51 51°22.659 2°43.391 303.4 5.3 305 28.2
2011-08-22 07:46:57 51°22.664 2°43.38 303.3 5.2 304 28.3
2011-08-22 07:47:02 51°22.668 2°43.371 302.7 5.1 304 28.2
2011-08-22 07:47:06 51°22.671 2°43.364 302.4 4.9 304 27.7
2011-08-22 07:47:12 51°22.675 2°43.353 303.3 4.7 307 27.5
2011-08-22 07:47:17 51°22.679 2°43.346 304.9 4.4 308 26.8
2011-08-22 07:47:22 51°22.683 2°43.339 306.9 4.2 311 25.4
2011-08-22 07:47:26 51°22.686 2°43.334 308.9 4 312 24.3
2011-08-22 07:47:32 51°22.69 2°43.327 310.7 3.8 315 25.2
2011-08-22 07:47:37 51°22.694 2°43.322 312.1 3.5 316 24.7
2011-08-22 07:47:42 51°22.697 2°43.317 313.6 3.1 318 24.5
2011-08-22 07:47:46 51°22.699 2°43.314 313.7 2.6 319 24.6
2011-08-22 07:47:52 51°22.702 2°43.31 312.2 2.1 319 24.7
2011-08-22 07:47:57 51°22.704 2°43.308 309.8 1.6 325 24.7
2011-08-22 07:48:02 51°22.705 2°43.307 307.7 1.2 324 24.8
2011-08-22 07:48:07 51°22.706 2°43.306 306.9 1 335 24.9
2011-08-22 07:48:12 51°22.707 2°43.305 307.1 0.7 340 25
2011-08-22 07:48:17 51°22.708 2°43.305 308.1 0.6 13 25.2
2011-08-22 07:48:22 51°22.708 2°43.306 309.7 0.4 45 25.2
2011-08-22 07:48:26 51°22.708 2°43.307 312 0.4 84 24.9
2011-08-22 07:48:32 51°22.708 2°43.308 314.2 0.4 76 24.9
2011-08-22 07:48:37 51°22.709 2°43.308 315.4 0.3 78 24.6
2011-08-22 07:48:42 51°22.709 2°43.309 315.8 0.3 78 24.5
2011-08-22 07:48:46 51°22.709 2°43.309 315.6 0.2 44 24.4
2011-08-22 07:48:52 51°22.709 2°43.309 314.7 0.2 3 24.9
2011-08-22 07:48:57 51°22.71 2°43.309 313.1 0.3 7 24.5
2011-08-22 07:49:02 51°22.71 2°43.309 311.1 0.3 356 24.7
2011-08-22 07:49:06 51°22.71 2°43.309 309.2 0.3 -999 24.4
2011-08-22 07:49:12 51°22.71 2°43.309 307.4 0.2 350 24.4
2011-08-22 07:49:17 51°22.711 2°43.309 306 0.3 350 24.4
2011-08-22 07:49:22 51°22.711 2°43.309 304.3 0.2 359 24.4
2011-08-22 07:49:26 51°22.711 2°43.309 303.1 0.2 41 24.3
2011-08-22 07:49:32 51°22.711 2°43.31 302.1 0.2 66 24.3
2011-08-22 07:49:37 51°22.712 2°43.31 301.3 0.3 67 24.4
2011-08-22 07:49:42 51°22.712 2°43.311 300.5 0.3 99 24.5
2011-08-22 07:49:47 51°22.711 2°43.311 299.4 0.4 96 -999
2011-08-22 07:49:53 51°22.711 2°43.313 298.2 0.6 101 -999
2011-08-22 07:49:58 51°22.711 2°43.315 297.1 0.6 107 -999
2011-08-22 07:50:04 51°22.711 2°43.317 296.2 0.7 102 4.8
2011-08-22 07:50:09 51°22.711 2°43.318 295.7 0.7 101 24.9
2011-08-22 07:50:14 51°22.711 2°43.32 294.9 0.7 100 24.7
2011-08-22 07:50:18 51°22.711 2°43.321 294.3 0.7 96 24.4
2011-08-22 07:50:23 51°22.711 2°43.322 293.5 0.4 94 24.1
2011-08-22 07:50:28 51°22.711 2°43.322 293.1 0.2 46 24.2
2011-08-22 07:50:33 51°22.711 2°43.322 293.3 0.3 324 24.1
2011-08-22 07:50:38 51°22.712 2°43.321 294.1 0.6 316 24.2
2011-08-22 07:50:42 51°22.712 2°43.319 296.4 0.9 307 24.3
2011-08-22 07:50:47 51°22.713 2°43.318 299.1 1 307 24.5
2011-08-22 07:50:52 51°22.714 2°43.316 302.1 1 311 24.8
2011-08-22 07:50:57 51°22.715 2°43.314 304.3 1 313 25
2011-08-22 07:51:02 51°22.716 2°43.313 307.3 1 320 25.2
2011-08-22 07:51:06 51°22.717 2°43.312 309.1 0.8 315 25.3
2011-08-22 07:51:12 51°22.717 2°43.311 310.4 0.5 319 25.4
2011-08-22 07:51:17 51°22.718 2°43.311 311.8 0.1 2 25.5
2011-08-22 07:51:22 51°22.717 2°43.312 313 0.3 124 25.8
2011-08-22 07:51:26 51°22.717 2°43.312 314.1 0.7 127 25.1
2011-08-22 07:51:32 51°22.716 2°43.314 314.8 1 131 25
2011-08-22 07:51:37 51°22.714 2°43.317 315.9 1.4 133 25
2011-08-22 07:51:42 51°22.713 2°43.319 317.8 1.6 133 24.8
2011-08-22 07:51:47 51°22.711 2°43.322 319.2 2 138 -999
2011-08-22 07:51:53 51°22.708 2°43.326 320.3 2.3 139 -999
2011-08-22 07:51:58 51°22.705 2°43.33 321.1 2.4 140 -999
2011-08-22 07:52:05 51°22.702 2°43.335 321.4 2.3 137 -999
2011-08-22 07:52:10 51°22.7 2°43.338 321.2 2.1 136 -999
2011-08-22 07:52:15 51°22.698 2°43.34 320.2 1.6 138 -999
2011-08-22 07:52:20 51°22.697 2°43.342 319.1 1 129 -999
2011-08-22 07:52:25 51°22.696 2°43.343 318.5 0.3 140 -999
2011-08-22 07:52:30 51°22.697 2°43.343 318.6 0.1 351 -999
2011-08-22 07:52:36 51°22.697 2°43.342 321.1 0.5 335 -999
2011-08-22 07:52:40 51°22.698 2°43.342 323.6 0.7 330 25.8
2011-08-22 07:52:45 51°22.7 2°43.341 326 1 334 25.7
2011-08-22 07:52:50 51°22.701 2°43.34 328.4 1.3 335 25.6
2011-08-22 07:52:54 51°22.703 2°43.338 331.1 1.5 333 25.6
2011-08-22 07:52:59 51°22.705 2°43.337 333.2 1.6 334 26.7
2011-08-22 07:53:04 51°22.707 2°43.335 336.9 2.1 340 -999
2011-08-22 07:53:09 51°22.71 2°43.333 339.7 2.2 342 27.8
2011-08-22 07:53:14 51°22.713 2°43.333 344.8 2.5 353 27.2
2011-08-22 07:53:19 51°22.717 2°43.331 348.1 2.8 343 27
2011-08-22 07:53:24 51°22.721 2°43.331 352.1 2.7 5 27.2
2011-08-22 07:53:28 51°22.724 2°43.331 358 2.8 355 27.2
2011-08-22 07:53:34 51°22.729 2°43.331 2.1 2.8 7 26.8
2011-08-22 07:53:38 51°22.732 2°43.332 7.5 2.8 9 27.4
2011-08-22 07:53:43 51°22.736 2°43.333 11.4 2.8 7 27.3
2011-08-22 07:53:48 51°22.739 2°43.335 14.6 2.5 18 28
2011-08-22 07:53:53 51°22.742 2°43.336 18.8 2.1 15 27.8
2011-08-22 07:53:58 51°22.744 2°43.338 21.9 1.4 20 27.8
2011-08-22 07:54:02 51°22.745 2°43.338 26.9 0.9 13 28.2
2011-08-22 07:54:07 51°22.745 2°43.338 30.5 0.7 20 28.2
2011-08-22 07:54:12 51°22.746 2°43.338 35.2 0.4 351 28.2
2011-08-22 07:54:17 51°22.746 2°43.338 38.2 0.2 310 28.2
2011-08-22 07:54:22 51°22.746 2°43.337 42.7 0.4 269 28.2
2011-08-22 07:54:27 51°22.746 2°43.336 45.3 0.5 244 28.2
2011-08-22 07:54:32 51°22.746 2°43.334 49.2 0.8 251 28.1
2011-08-22 07:54:38 51°22.745 2°43.332 52.5 1 244 -999
2011-08-22 07:54:43 51°22.744 2°43.329 56.4 1.2 249 -999
2011-08-22 07:54:49 51°22.743 2°43.326 58.9 1.3 253 -999
2011-08-22 07:54:54 51°22.743 2°43.323 61.6 1.2 259 -999
2011-08-22 07:55:00 51°22.743 2°43.321 62.5 1.2 257 -999
2011-08-22 07:55:05 51°22.743 2°43.318 63.5 1.2 261 -999